• Join FlightAware (Why Join?)
  • Login
  • US Flag 
03:12AM EDT


 

Airport Tracker/Info


-or-


 

Live Flight TrackerFlight Track Log ✈ AAY854 ✈ 04-Aug-2014 ✈ KPIE - KSBN

Flight Track Log - Related Links

Times and Time Zones

All times are in EDT time to prevent confusion due to time zone crossing. See the AAY854 flight status page for this flight to view local times or setup timezone preferences in your user account.

Time Position Orientation Groundspeed Altitude Reporting Facility
EDT Latitude Longitude Course Direction KTS MPH feet Rate Location/Type
04:25PM 27.9333 -82.6833 351° North 157 181 600  Level Tampa TRACON
04:27PM 28.0167 -82.6500 19° North 271 312 1,600 1,140 Climbing Tampa TRACON
04:27PM 28.0667 -82.6500 360° North 266 306 3,300 1,380 Climbing Tampa TRACON
04:28PM 28.1500 -82.6333 10° North 261 300 4,100 1,800 Climbing Tampa TRACON
04:30PM 28.2581 -82.6333 360° North 269 310 8,300 2,160 Climbing Jacksonville Center
04:31PM 28.5850 -82.8295 351° North  Level FlightAware Approximate
04:31PM 28.3333 -82.6567 345° North 275 316 10,000  Level Jacksonville Center
04:32PM 28.4106 -82.6803 345° North 281 323 11,500 1,800 Climbing Jacksonville Center
04:33PM 28.4942 -82.7011 348° North 288 331 13,700 1,740 Climbing Jacksonville Center
04:34PM 28.5817 -82.7272 345° North 304 350 15,000 1,260 Climbing Jacksonville Center
04:35PM 28.6944 -82.7578 347° North 350 403 16,300 1,500 Climbing Jacksonville Center
04:36PM 28.8072 -82.7883 347° North 383 441 18,000 1,620 Climbing Jacksonville Center
04:37PM 28.9219 -82.8214 346° North 407 468 19,600 1,500 Climbing Jacksonville Center
04:38PM 29.0453 -82.8569 346° North 424 488 21,100 1,440 Climbing Jacksonville Center
04:39PM 29.1683 -82.8925 346° North 438 504 22,500 1,320 Climbing Jacksonville Center
04:40PM 29.2978 -82.9283 346° North 449 517 23,800 1,440 Climbing Jacksonville Center
04:41PM 29.4208 -82.9761 341° North 461 531 25,400 1,380 Climbing Jacksonville Center
04:42PM 29.5336 -83.0239 340° North 468 539 26,600 1,260 Climbing Jacksonville Center
04:43PM 29.6567 -83.0742 340° North 468 539 28,000 1,320 Climbing Jacksonville Center
04:44PM 29.7756 -83.1342 336° Northwest 468 539 29,300 1,200 Climbing Jacksonville Center
04:45PM 29.8986 -83.1872 340° North 463 533 30,500 1,020 Climbing Jacksonville Center
04:46PM 30.0156 -83.2475 336° Northwest 463 533 31,400 720 Climbing Jacksonville Center
04:47PM 30.1386 -83.2986 340° North 463 533 32,000 300 Climbing Jacksonville Center
04:48PM 30.2614 -83.3592 337° Northwest 463 533 32,000  Level Jacksonville Center
04:49PM 30.3867 -83.4150 339° North 468 539 32,000  Level Jacksonville Center
04:50PM 30.5094 -83.4736 338° Northwest 473 544 32,000  Level Jacksonville Center
04:51PM 30.6303 -83.5347 336° Northwest 473 544 32,000  Level Jacksonville Center
04:52PM 30.7636 -83.5936 339° North 467 537 32,000  Level Jacksonville Center
04:53PM 30.8844 -83.6528 337° Northwest 467 537 32,000  Level Jacksonville Center
04:54PM 31.0072 -83.7119 338° Northwest 473 544 32,000  Level Jacksonville Center
04:55PM 31.1278 -83.7686 338° Northwest 473 544 32,000  Level Jacksonville Center
04:57PM 31.3083 -83.8567 337° Northwest 467 537 32,000  Level Atlanta Center
04:58PM 31.4272 -83.9147 337° Northwest 467 537 32,000  Level Atlanta Center
04:59PM 31.5525 -83.9706 339° North 467 537 32,000  Level Atlanta Center
05:00PM 31.6839 -84.0022 348° North 472 543 32,000 180 Level Atlanta Center
05:01PM 31.8197 -84.0267 351° North 478 550 32,400 600 Climbing Atlanta Center
05:02PM 31.9492 -84.0536 350° North 478 550 33,200 720 Climbing Atlanta Center
05:03PM 32.0806 -84.0831 349° North 478 550 33,900 360 Climbing Atlanta Center
05:04PM 32.2244 -84.1175 349° North 478 550 34,000  Climbing Atlanta Center
05:05PM 32.3581 -84.1469 349° North 478 550 34,000  Level Atlanta Center
05:06PM 32.4875 -84.1767 349° North 478 550 34,000  Level Atlanta Center
05:07PM 32.6189 -84.2064 349° North 478 550 34,000  Level Atlanta Center
05:08PM 32.7483 -84.2389 348° North 478 550 34,000  Level Atlanta Center
05:09PM 32.8778 -84.2639 351° North 473 544 34,000  Level Atlanta Center
05:10PM 33.0069 -84.2939 349° North 473 544 34,000  Level Atlanta Center
05:11PM 33.1364 -84.3217 350° North 467 537 34,000  Level Atlanta Center
05:12PM 33.2658 -84.3519 349° North 467 537 34,000  Level Atlanta Center
05:13PM 33.3950 -84.3847 348° North 467 537 34,000  Level Atlanta Center
05:14PM 33.5244 -84.4150 349° North 467 537 34,000  Level Atlanta Center
05:15PM 33.6517 -84.4456 349° North 467 537 34,000  Level Atlanta Center
05:16PM 33.7808 -84.4761 349° North 467 537 34,000  Level Atlanta Center
05:17PM 33.9122 -84.5069 349° North 467 537 34,000  Level Atlanta Center
05:18PM 34.0417 -84.5353 350° North 473 544 34,000  Level Atlanta Center
05:19PM 34.1625 -84.5661 348° North 482 555 34,000  Level Atlanta Center
05:20PM 34.2919 -84.5944 350° North 482 555 34,000  Level Atlanta Center
05:21PM 34.4275 -84.6078 355° North 482 555 34,000  Level Atlanta Center
05:22PM 34.5567 -84.6289 352° North 482 555 34,000  Level Atlanta Center
05:23PM 34.6964 -84.6603 350° North 475 547 34,000  Level Atlanta Center
05:24PM 34.8236 -84.6967 347° North 468 539 34,000  Level Atlanta Center
05:25PM 34.9486 -84.7381 345° North 468 539 34,000  Level Atlanta Center
05:26PM 35.0733 -84.7797 345° North 468 539 34,000  Level Atlanta Center
05:27PM 35.2006 -84.8242 344° North 468 539 34,000  Level Atlanta Center
05:28PM 35.3256 -84.8583 347° North 463 533 34,000  Level Atlanta Center
05:29PM 35.4547 -84.8750 354° North 463 533 34,000  Level Atlanta Center
05:30PM 35.5817 -84.8994 351° North 463 533 34,000  Level Atlanta Center
05:31PM 35.6922 -84.9158 353° North 463 533 34,000  Level Atlanta Center
05:32PM 35.9019 -84.9453 354° North 463 533 34,000  Level Indianapolis Center
05:33PM 36.0306 -84.9628 354° North 463 533 34,000  Level Indianapolis Center
05:34PM 36.1781 -84.9856 353° North 451 519 34,000  Level Indianapolis Center
05:36PM 36.3000 -85.0028 354° North 445 512 34,000  Level Indianapolis Center
05:37PM 36.4200 -85.0200 353° North 440 506 34,000  Level Indianapolis Center
05:38PM 36.5400 -85.0389 353° North 437 503 34,000  Level Indianapolis Center
05:39PM 36.6594 -85.0575 353° North 436 502 34,000  Level Indianapolis Center
05:40PM 36.7781 -85.0758 353° North 434 499 34,000  Level Indianapolis Center
05:41PM 36.9192 -85.0969 353° North 429 494 34,000  Level Indianapolis Center
05:42PM 37.0353 -85.1167 352° North 427 491 34,000  Level Indianapolis Center
05:43PM 37.1514 -85.1331 354° North 425 489 34,000  Level Indianapolis Center
05:44PM 37.2653 -85.1517 353° North 416 479 34,000  Level Indianapolis Center
05:45PM 37.3822 -85.1700 353° North 416 479 34,000  Level Indianapolis Center
05:46PM 37.4986 -85.1881 353° North 417 480 34,000  Level Indianapolis Center
05:47PM 37.6353 -85.2081 353° North 418 481 34,000  Level Indianapolis Center
05:48PM 37.7528 -85.2278 352° North 420 483 34,000  Level Indianapolis Center
05:49PM 37.8722 -85.2467 353° North 421 484 34,000  Level Indianapolis Center
05:50PM 37.9861 -85.2664 352° North 419 482 34,000  Level Indianapolis Center
05:51PM 38.1014 -85.2833 353° North 419 482 34,000  Level Indianapolis Center
05:52PM 38.2186 -85.3022 353° North 420 483 34,000  Level Indianapolis Center
05:53PM 38.3333 -85.3219 352° North 420 483 34,000  Level Indianapolis Center
05:54PM 38.4497 -85.3392 353° North 420 483 34,000  Level Indianapolis Center
05:55PM 38.5889 -85.3619 353° North 419 482 34,000  Level Indianapolis Center
05:56PM 38.6978 -85.3800 353° North 419 482 34,000 -60 Level Indianapolis Center
05:57PM 38.8144 -85.3986 353° North 419 482 33,900 -660 Descending Indianapolis Center
05:58PM 38.9294 -85.4175 353° North 419 482 32,700 -1,260 Descending Indianapolis Center
05:59PM 39.0469 -85.4358 353° North 422 486 31,400 -1,380 Descending Indianapolis Center
06:00PM 39.1881 -85.4606 352° North 424 488 29,900 -1,380 Descending Indianapolis Center
06:01PM 39.3083 -85.4792 353° North 433 498 28,600 -960 Descending Indianapolis Center
06:02PM 39.4311 -85.5017 352° North 440 506 28,000 -300 Descending Indianapolis Center
06:03PM 39.5533 -85.5200 353° North 442 509 28,000 -180 Level Indianapolis Center
06:04PM 39.6767 -85.5411 352° North 446 513 27,700 -600 Descending Indianapolis Center
06:05PM 39.8186 -85.5636 353° North 438 504 26,800 -1,500 Descending Indianapolis Center
06:07PM 39.9344 -85.5858 352° North 431 496 24,600 -2,460 Descending Indianapolis Center
06:08PM 40.0539 -85.6061 353° North 431 496 21,800 -2,700 Descending Indianapolis Center
06:09PM 40.1647 -85.6236 353° North 416 479 19,100 -1,380 Descending Indianapolis Center
06:10PM 40.2703 -85.6406 353° North 394 453 19,000 -60 Descending Indianapolis Center
06:11PM 40.3958 -85.6636 352° North 387 445 19,000  Level Indianapolis Center
06:12PM 40.5014 -85.6797 353° North 386 444 19,000  Level Chicago Center
06:13PM 40.5997 -85.7331 338° Northwest 385 443 19,000  Level Chicago Center
06:14PM 40.7081 -85.7861 340° North 381 438 19,000  Level Chicago Center
06:15PM 40.8067 -85.8339 340° North 380 437 19,000 -420 Level Chicago Center
06:16PM 40.9056 -85.8836 339° North 380 437 18,200 -1,260 Descending Chicago Center
06:17PM 41.0069 -85.9358 339° North 384 442 16,500 -1,800 Descending Chicago Center
06:18PM 41.1069 -85.9842 340° North 386 444 14,500 -1,920 Descending Chicago Center
06:19PM 41.2028 -86.0247 342° North 367 422 12,600 -1,740 Descending Chicago Center
06:20PM 41.2972 -86.0597 344° North 356 410 11,000 -1,440 Descending Chicago Center
06:22PM 41.4783 -86.1067 349° North 303 349 8,300 -1,800 Descending Chicago Center
06:23PM 41.5525 -86.0781 16° North 281 323 5,500 -2,580 Descending Chicago Center
06:24PM 41.6186 -86.1144 338° Northwest 278 320 3,000 -1,500 Descending Chicago Center
06:25PM 41.6656 -86.1733 317° Northwest 252 290 2,500 -540 Descending Chicago Center
06:26PM 41.7022 -86.2208 316° Northwest 212 244 1,900 -720 Descending Chicago Center
06:27PM 41.7033 -86.2775 272° West 175 201 1,100 -780 Descending Chicago Center